CheckWX is a tool to help pilots better visualize weather data.  It is not intended as a substitute for an official pre-flight weather briefing.

06:52:40 UTC

KPRG METAR
Edgar County Airport
Paris, Illinois, USA
Current

18 mins ago

KPRG 210635Z AUTO 05009KT 10SM CLR 10/05 A3008 RMK AO2 T01000053
Observed
May-21 @ 06:35 UTC
Wind
  • 050° at 9 KTS
Visibility
10 SM
Flight Rules
VFR
Cloud Levels
  • Clear skies
Temperature
10°C / 50°F
Dewpoint
C / 41°F
Humidity
71%
Altimeter
30.08" Hg
Pressure
1018.62 hPa
Previous

38 mins ago

KPRG 210615Z AUTO 05009KT 10SM CLR 10/05 A3009 RMK AO2 T01020053
Observed
May-21 @ 06:15 UTC
Wind
  • 050° at 9 KTS
Visibility
10 SM
Flight Rules
VFR
Cloud Levels
  • Clear skies
Temperature
10°C / 50°F
Dewpoint
C / 41°F
Humidity
71%
Altimeter
30.09" Hg
Pressure
1018.92 hPa
Previous

58 mins ago

KPRG 210555Z AUTO 05010KT 10SM CLR 10/05 A3009 RMK AO2 T01030053 10145 20103 401730103
Observed
May-21 @ 05:55 UTC
Wind
  • 050° at 10 KTS
Visibility
10 SM
Flight Rules
VFR
Cloud Levels
  • Clear skies
Temperature
10°C / 50°F
Dewpoint
C / 41°F
Humidity
71%
Altimeter
30.09" Hg
Pressure
1018.92 hPa